sensor_id;sensor_type;location;lat;lon;timestamp;P1;durP1;ratioP1;P2;durP2;ratioP2
9420;SDS011;4749;51.398;5.466;2023-09-19T00:01:40;17.23;;;2.53;;
9420;SDS011;4749;51.398;5.466;2023-09-19T00:04:08;8.18;;;2.33;;
9420;SDS011;4749;51.398;5.466;2023-09-19T00:06:36;12.30;;;2.58;;
9420;SDS011;4749;51.398;5.466;2023-09-19T00:09:04;11.43;;;2.20;;
9420;SDS011;4749;51.398;5.466;2023-09-19T00:11:32;9.35;;;2.55;;
9420;SDS011;4749;51.398;5.466;2023-09-19T00:14:00;11.45;;;2.90;;
9420;SDS011;4749;51.398;5.466;2023-09-19T00:16:27;13.93;;;2.15;;
9420;SDS011;4749;51.398;5.466;2023-09-19T00:18:55;14.70;;;2.60;;
9420;SDS011;4749;51.398;5.466;2023-09-19T00:21:22;9.07;;;1.98;;
9420;SDS011;4749;51.398;5.466;2023-09-19T00:23:49;14.73;;;2.42;;
9420;SDS011;4749;51.398;5.466;2023-09-19T00:26:18;11.93;;;2.30;;
9420;SDS011;4749;51.398;5.466;2023-09-19T00:28:47;9.77;;;2.25;;
9420;SDS011;4749;51.398;5.466;2023-09-19T00:31:14;8.30;;;2.10;;
9420;SDS011;4749;51.398;5.466;2023-09-19T00:33:42;13.93;;;2.30;;
9420;SDS011;4749;51.398;5.466;2023-09-19T00:36:09;13.35;;;2.40;;
9420;SDS011;4749;51.398;5.466;2023-09-19T00:38:36;12.93;;;2.53;;
9420;SDS011;4749;51.398;5.466;2023-09-19T00:41:03;12.05;;;2.63;;
9420;SDS011;4749;51.398;5.466;2023-09-19T00:43:31;12.52;;;2.38;;
9420;SDS011;4749;51.398;5.466;2023-09-19T00:46:01;13.40;;;2.33;;
9420;SDS011;4749;51.398;5.466;2023-09-19T00:48:31;13.50;;;2.15;;
9420;SDS011;4749;51.398;5.466;2023-09-19T00:51:03;9.93;;;2.30;;
9420;SDS011;4749;51.398;5.466;2023-09-19T00:53:31;10.32;;;2.30;;
9420;SDS011;4749;51.398;5.466;2023-09-19T00:56:01;13.48;;;2.33;;
9420;SDS011;4749;51.398;5.466;2023-09-19T00:58:34;10.63;;;2.10;;
9420;SDS011;4749;51.398;5.466;2023-09-19T01:01:03;14.20;;;2.78;;
9420;SDS011;4749;51.398;5.466;2023-09-19T01:03:34;12.02;;;2.30;;
9420;SDS011;4749;51.398;5.466;2023-09-19T01:06:02;16.98;;;2.85;;
9420;SDS011;4749;51.398;5.466;2023-09-19T01:08:30;13.02;;;2.70;;
9420;SDS011;4749;51.398;5.466;2023-09-19T01:11:06;11.52;;;2.30;;
9420;SDS011;4749;51.398;5.466;2023-09-19T01:28:51;12.48;;;1.88;;
9420;SDS011;4749;51.398;5.466;2023-09-19T01:32:06;16.38;;;2.92;;
9420;SDS011;4749;51.398;5.466;2023-09-19T01:34:47;11.20;;;2.00;;
9420;SDS011;4749;51.398;5.466;2023-09-19T01:37:17;12.05;;;2.40;;
9420;SDS011;4749;51.398;5.466;2023-09-19T01:39:59;10.65;;;2.95;;
9420;SDS011;4749;51.398;5.466;2023-09-19T01:42:43;12.10;;;2.30;;
9420;SDS011;4749;51.398;5.466;2023-09-19T01:48:35;12.80;;;2.60;;
9420;SDS011;4749;51.398;5.466;2023-09-19T01:51:27;11.05;;;2.25;;
9420;SDS011;4749;51.398;5.466;2023-09-19T01:54:10;14.63;;;2.28;;
9420;SDS011;4749;51.398;5.466;2023-09-19T01:56:45;12.63;;;1.92;;
9420;SDS011;4749;51.398;5.466;2023-09-19T01:59:21;11.07;;;2.25;;
9420;SDS011;4749;51.398;5.466;2023-09-19T02:01:54;13.73;;;2.17;;
9420;SDS011;4749;51.398;5.466;2023-09-19T02:04:23;7.00;;;1.88;;
9420;SDS011;4749;51.398;5.466;2023-09-19T02:06:50;11.30;;;1.92;;
9420;SDS011;4749;51.398;5.466;2023-09-19T02:09:18;9.27;;;1.65;;
9420;SDS011;4749;51.398;5.466;2023-09-19T02:11:45;7.72;;;1.70;;
9420;SDS011;4749;51.398;5.466;2023-09-19T02:14:12;12.50;;;3.20;;
9420;SDS011;4749;51.398;5.466;2023-09-19T02:16:40;8.38;;;1.73;;
9420;SDS011;4749;51.398;5.466;2023-09-19T02:19:08;7.75;;;1.95;;
9420;SDS011;4749;51.398;5.466;2023-09-19T02:21:35;12.90;;;2.17;;
9420;SDS011;4749;51.398;5.466;2023-09-19T02:24:02;10.90;;;2.08;;
9420;SDS011;4749;51.398;5.466;2023-09-19T02:26:30;5.88;;;2.38;;
9420;SDS011;4749;51.398;5.466;2023-09-19T02:28:57;10.30;;;2.25;;
9420;SDS011;4749;51.398;5.466;2023-09-19T02:31:25;10.23;;;2.00;;
9420;SDS011;4749;51.398;5.466;2023-09-19T02:33:56;8.98;;;2.03;;
9420;SDS011;4749;51.398;5.466;2023-09-19T02:36:23;8.98;;;1.92;;
9420;SDS011;4749;51.398;5.466;2023-09-19T02:38:50;10.02;;;2.35;;
9420;SDS011;4749;51.398;5.466;2023-09-19T02:41:17;7.80;;;1.85;;
9420;SDS011;4749;51.398;5.466;2023-09-19T02:43:45;11.25;;;2.17;;
9420;SDS011;4749;51.398;5.466;2023-09-19T02:46:13;12.90;;;2.35;;
9420;SDS011;4749;51.398;5.466;2023-09-19T02:48:41;4.93;;;1.67;;
9420;SDS011;4749;51.398;5.466;2023-09-19T02:51:08;8.63;;;2.33;;
9420;SDS011;4749;51.398;5.466;2023-09-19T02:53:35;9.35;;;2.22;;
9420;SDS011;4749;51.398;5.466;2023-09-19T02:56:03;9.35;;;2.22;;
9420;SDS011;4749;51.398;5.466;2023-09-19T02:58:31;8.07;;;2.10;;
9420;SDS011;4749;51.398;5.466;2023-09-19T03:01:08;9.23;;;2.17;;
9420;SDS011;4749;51.398;5.466;2023-09-19T03:03:39;15.68;;;2.88;;
9420;SDS011;4749;51.398;5.466;2023-09-19T03:06:07;9.18;;;1.70;;
9420;SDS011;4749;51.398;5.466;2023-09-19T03:08:35;14.88;;;2.60;;
9420;SDS011;4749;51.398;5.466;2023-09-19T03:11:05;14.07;;;2.85;;
9420;SDS011;4749;51.398;5.466;2023-09-19T03:13:35;11.80;;;2.08;;
9420;SDS011;4749;51.398;5.466;2023-09-19T03:16:04;4.85;;;1.73;;
9420;SDS011;4749;51.398;5.466;2023-09-19T03:18:35;18.77;;;2.15;;
9420;SDS011;4749;51.398;5.466;2023-09-19T03:21:03;13.07;;;2.08;;
9420;SDS011;4749;51.398;5.466;2023-09-19T03:23:31;5.00;;;1.85;;
9420;SDS011;4749;51.398;5.466;2023-09-19T03:25:58;10.52;;;2.40;;
9420;SDS011;4749;51.398;5.466;2023-09-19T03:28:25;13.75;;;1.73;;
9420;SDS011;4749;51.398;5.466;2023-09-19T03:33:31;7.40;;;1.73;;
9420;SDS011;4749;51.398;5.466;2023-09-19T03:35:59;7.70;;;1.80;;
9420;SDS011;4749;51.398;5.466;2023-09-19T03:38:32;9.70;;;2.00;;
9420;SDS011;4749;51.398;5.466;2023-09-19T03:41:01;9.23;;;2.08;;
9420;SDS011;4749;51.398;5.466;2023-09-19T03:43:29;11.07;;;2.72;;
9420;SDS011;4749;51.398;5.466;2023-09-19T03:46:01;7.05;;;2.20;;
9420;SDS011;4749;51.398;5.466;2023-09-19T03:48:32;10.80;;;1.98;;
9420;SDS011;4749;51.398;5.466;2023-09-19T03:51:00;9.63;;;1.90;;
9420;SDS011;4749;51.398;5.466;2023-09-19T03:53:27;6.28;;;2.20;;
9420;SDS011;4749;51.398;5.466;2023-09-19T03:55:54;11.55;;;2.30;;
9420;SDS011;4749;51.398;5.466;2023-09-19T03:58:22;12.15;;;2.20;;
9420;SDS011;4749;51.398;5.466;2023-09-19T04:00:49;9.73;;;1.83;;
9420;SDS011;4749;51.398;5.466;2023-09-19T04:03:17;12.35;;;2.35;;
9420;SDS011;4749;51.398;5.466;2023-09-19T04:05:47;7.97;;;1.50;;
9420;SDS011;4749;51.398;5.466;2023-09-19T04:08:14;8.60;;;1.92;;
9420;SDS011;4749;51.398;5.466;2023-09-19T04:10:42;9.77;;;2.30;;
9420;SDS011;4749;51.398;5.466;2023-09-19T04:13:11;12.98;;;2.35;;
9420;SDS011;4749;51.398;5.466;2023-09-19T04:15:38;11.63;;;1.90;;
9420;SDS011;4749;51.398;5.466;2023-09-19T04:18:06;12.40;;;2.65;;
9420;SDS011;4749;51.398;5.466;2023-09-19T04:20:33;9.05;;;2.28;;
9420;SDS011;4749;51.398;5.466;2023-09-19T04:23:01;13.30;;;2.65;;
9420;SDS011;4749;51.398;5.466;2023-09-19T04:25:28;10.68;;;2.08;;
9420;SDS011;4749;51.398;5.466;2023-09-19T04:27:55;8.30;;;2.05;;
9420;SDS011;4749;51.398;5.466;2023-09-19T04:30:22;18.52;;;2.92;;
9420;SDS011;4749;51.398;5.466;2023-09-19T04:32:49;11.55;;;2.15;;
9420;SDS011;4749;51.398;5.466;2023-09-19T04:35:18;8.27;;;2.00;;
9420;SDS011;4749;51.398;5.466;2023-09-19T04:37:45;14.35;;;2.40;;
9420;SDS011;4749;51.398;5.466;2023-09-19T04:40:13;9.00;;;2.47;;
9420;SDS011;4749;51.398;5.466;2023-09-19T04:42:52;11.95;;;2.78;;
9420;SDS011;4749;51.398;5.466;2023-09-19T04:45:26;11.85;;;2.17;;
9420;SDS011;4749;51.398;5.466;2023-09-19T04:47:55;16.35;;;2.20;;
9420;SDS011;4749;51.398;5.466;2023-09-19T04:50:23;11.68;;;2.33;;
9420;SDS011;4749;51.398;5.466;2023-09-19T04:52:54;10.32;;;3.17;;
9420;SDS011;4749;51.398;5.466;2023-09-19T04:55:21;7.18;;;1.98;;
9420;SDS011;4749;51.398;5.466;2023-09-19T04:57:52;11.25;;;2.53;;
9420;SDS011;4749;51.398;5.466;2023-09-19T05:00:20;14.55;;;2.47;;
9420;SDS011;4749;51.398;5.466;2023-09-19T05:02:54;10.68;;;1.98;;
9420;SDS011;4749;51.398;5.466;2023-09-19T05:05:23;7.80;;;2.05;;
9420;SDS011;4749;51.398;5.466;2023-09-19T05:07:52;11.73;;;2.90;;
9420;SDS011;4749;51.398;5.466;2023-09-19T05:10:22;10.73;;;2.50;;
9420;SDS011;4749;51.398;5.466;2023-09-19T05:12:52;9.02;;;1.85;;
9420;SDS011;4749;51.398;5.466;2023-09-19T05:15:20;9.52;;;2.22;;
9420;SDS011;4749;51.398;5.466;2023-09-19T05:17:48;10.32;;;2.10;;
9420;SDS011;4749;51.398;5.466;2023-09-19T05:20:22;10.23;;;2.17;;
9420;SDS011;4749;51.398;5.466;2023-09-19T05:22:57;9.43;;;2.22;;
9420;SDS011;4749;51.398;5.466;2023-09-19T05:25:36;14.18;;;2.88;;
9420;SDS011;4749;51.398;5.466;2023-09-19T05:28:05;10.38;;;1.92;;
9420;SDS011;4749;51.398;5.466;2023-09-19T05:30:34;10.55;;;2.10;;
9420;SDS011;4749;51.398;5.466;2023-09-19T05:33:06;11.00;;;2.28;;
9420;SDS011;4749;51.398;5.466;2023-09-19T05:35:34;12.15;;;2.75;;
9420;SDS011;4749;51.398;5.466;2023-09-19T05:38:06;9.20;;;2.03;;
9420;SDS011;4749;51.398;5.466;2023-09-19T05:40:35;18.10;;;2.33;;
9420;SDS011;4749;51.398;5.466;2023-09-19T05:43:05;8.15;;;1.95;;
9420;SDS011;4749;51.398;5.466;2023-09-19T05:45:32;14.48;;;2.20;;
9420;SDS011;4749;51.398;5.466;2023-09-19T05:48:09;11.30;;;2.47;;
9420;SDS011;4749;51.398;5.466;2023-09-19T05:50:42;9.82;;;2.13;;
9420;SDS011;4749;51.398;5.466;2023-09-19T05:53:11;11.32;;;2.63;;
9420;SDS011;4749;51.398;5.466;2023-09-19T05:55:41;10.52;;;3.03;;
9420;SDS011;4749;51.398;5.466;2023-09-19T05:58:09;9.13;;;2.00;;
9420;SDS011;4749;51.398;5.466;2023-09-19T06:00:42;9.68;;;2.00;;
9420;SDS011;4749;51.398;5.466;2023-09-19T06:03:11;11.80;;;2.25;;
9420;SDS011;4749;51.398;5.466;2023-09-19T06:05:40;12.38;;;2.88;;
9420;SDS011;4749;51.398;5.466;2023-09-19T06:08:07;10.80;;;2.33;;
9420;SDS011;4749;51.398;5.466;2023-09-19T06:10:35;11.88;;;2.72;;
9420;SDS011;4749;51.398;5.466;2023-09-19T06:13:04;10.23;;;2.40;;
9420;SDS011;4749;51.398;5.466;2023-09-19T06:15:32;12.95;;;2.22;;
9420;SDS011;4749;51.398;5.466;2023-09-19T06:18:03;10.57;;;2.05;;
9420;SDS011;4749;51.398;5.466;2023-09-19T06:20:31;14.93;;;2.65;;
9420;SDS011;4749;51.398;5.466;2023-09-19T06:23:00;14.00;;;2.35;;
9420;SDS011;4749;51.398;5.466;2023-09-19T06:25:29;9.85;;;2.03;;
9420;SDS011;4749;51.398;5.466;2023-09-19T06:27:56;9.48;;;1.80;;
9420;SDS011;4749;51.398;5.466;2023-09-19T06:30:24;12.73;;;2.35;;
9420;SDS011;4749;51.398;5.466;2023-09-19T06:32:56;12.27;;;2.47;;
9420;SDS011;4749;51.398;5.466;2023-09-19T06:35:24;11.23;;;2.78;;
9420;SDS011;4749;51.398;5.466;2023-09-19T06:37:53;10.10;;;2.42;;
9420;SDS011;4749;51.398;5.466;2023-09-19T06:40:21;11.73;;;2.45;;
9420;SDS011;4749;51.398;5.466;2023-09-19T06:42:51;11.70;;;2.88;;
9420;SDS011;4749;51.398;5.466;2023-09-19T06:45:20;9.25;;;2.30;;
9420;SDS011;4749;51.398;5.466;2023-09-19T06:47:49;7.28;;;2.58;;
9420;SDS011;4749;51.398;5.466;2023-09-19T06:50:18;9.23;;;2.13;;
9420;SDS011;4749;51.398;5.466;2023-09-19T06:52:52;13.25;;;2.35;;
9420;SDS011;4749;51.398;5.466;2023-09-19T06:55:21;11.85;;;2.05;;
9420;SDS011;4749;51.398;5.466;2023-09-19T06:57:55;10.50;;;2.42;;
9420;SDS011;4749;51.398;5.466;2023-09-19T07:00:22;10.95;;;2.20;;
9420;SDS011;4749;51.398;5.466;2023-09-19T07:02:54;18.70;;;3.00;;
9420;SDS011;4749;51.398;5.466;2023-09-19T07:05:27;10.20;;;2.42;;
9420;SDS011;4749;51.398;5.466;2023-09-19T07:07:55;10.13;;;2.17;;
9420;SDS011;4749;51.398;5.466;2023-09-19T07:10:23;10.93;;;2.13;;
9420;SDS011;4749;51.398;5.466;2023-09-19T07:12:54;11.00;;;2.03;;
9420;SDS011;4749;51.398;5.466;2023-09-19T07:15:25;12.27;;;3.03;;
9420;SDS011;4749;51.398;5.466;2023-09-19T07:17:54;8.52;;;2.85;;
9420;SDS011;4749;51.398;5.466;2023-09-19T07:20:23;11.85;;;2.30;;
9420;SDS011;4749;51.398;5.466;2023-09-19T07:22:56;16.00;;;3.03;;
9420;SDS011;4749;51.398;5.466;2023-09-19T07:25:26;9.82;;;2.20;;
9420;SDS011;4749;51.398;5.466;2023-09-19T07:27:55;11.10;;;3.45;;
9420;SDS011;4749;51.398;5.466;2023-09-19T07:30:27;9.40;;;1.98;;
9420;SDS011;4749;51.398;5.466;2023-09-19T07:32:55;11.23;;;2.50;;
9420;SDS011;4749;51.398;5.466;2023-09-19T07:35:23;9.27;;;1.85;;
9420;SDS011;4749;51.398;5.466;2023-09-19T07:37:50;10.23;;;2.55;;
9420;SDS011;4749;51.398;5.466;2023-09-19T07:40:23;12.25;;;2.20;;
9420;SDS011;4749;51.398;5.466;2023-09-19T07:42:53;9.90;;;2.13;;
9420;SDS011;4749;51.398;5.466;2023-09-19T07:45:28;12.70;;;2.25;;
9420;SDS011;4749;51.398;5.466;2023-09-19T07:47:58;9.52;;;2.13;;
9420;SDS011;4749;51.398;5.466;2023-09-19T07:50:32;12.40;;;2.35;;
9420;SDS011;4749;51.398;5.466;2023-09-19T07:53:03;11.57;;;2.80;;
9420;SDS011;4749;51.398;5.466;2023-09-19T07:55:31;15.95;;;2.38;;
9420;SDS011;4749;51.398;5.466;2023-09-19T07:58:01;12.70;;;2.15;;
9420;SDS011;4749;51.398;5.466;2023-09-19T08:00:30;9.45;;;2.55;;
9420;SDS011;4749;51.398;5.466;2023-09-19T08:02:59;12.68;;;2.78;;
9420;SDS011;4749;51.398;5.466;2023-09-19T08:05:38;10.63;;;2.45;;
9420;SDS011;4749;51.398;5.466;2023-09-19T08:08:09;12.60;;;2.55;;
9420;SDS011;4749;51.398;5.466;2023-09-19T08:10:44;12.57;;;2.38;;
9420;SDS011;4749;51.398;5.466;2023-09-19T08:13:15;8.43;;;2.17;;
9420;SDS011;4749;51.398;5.466;2023-09-19T08:15:44;7.07;;;1.95;;
9420;SDS011;4749;51.398;5.466;2023-09-19T08:18:12;10.38;;;1.92;;
9420;SDS011;4749;51.398;5.466;2023-09-19T08:20:40;13.63;;;2.58;;
9420;SDS011;4749;51.398;5.466;2023-09-19T08:23:08;9.90;;;2.20;;
9420;SDS011;4749;51.398;5.466;2023-09-19T08:25:36;16.88;;;2.65;;
9420;SDS011;4749;51.398;5.466;2023-09-19T08:28:04;11.30;;;2.50;;
9420;SDS011;4749;51.398;5.466;2023-09-19T08:30:35;11.98;;;2.17;;
9420;SDS011;4749;51.398;5.466;2023-09-19T08:33:04;9.30;;;2.30;;
9420;SDS011;4749;51.398;5.466;2023-09-19T08:35:31;13.15;;;2.40;;
9420;SDS011;4749;51.398;5.466;2023-09-19T08:37:59;10.15;;;2.35;;
9420;SDS011;4749;51.398;5.466;2023-09-19T08:40:30;16.80;;;2.67;;
9420;SDS011;4749;51.398;5.466;2023-09-19T08:43:00;12.48;;;2.60;;
9420;SDS011;4749;51.398;5.466;2023-09-19T08:45:27;12.13;;;2.33;;
9420;SDS011;4749;51.398;5.466;2023-09-19T08:50:55;13.50;;;2.67;;
9420;SDS011;4749;51.398;5.466;2023-09-19T08:53:34;12.57;;;3.00;;
9420;SDS011;4749;51.398;5.466;2023-09-19T08:56:37;9.18;;;1.80;;
9420;SDS011;4749;51.398;5.466;2023-09-19T08:59:06;14.40;;;2.75;;
9420;SDS011;4749;51.398;5.466;2023-09-19T09:01:34;12.50;;;1.98;;
9420;SDS011;4749;51.398;5.466;2023-09-19T09:04:02;8.57;;;2.17;;
9420;SDS011;4749;51.398;5.466;2023-09-19T09:06:35;11.18;;;2.97;;
9420;SDS011;4749;51.398;5.466;2023-09-19T09:09:03;14.27;;;2.85;;
9420;SDS011;4749;51.398;5.466;2023-09-19T09:11:32;9.70;;;2.15;;
9420;SDS011;4749;51.398;5.466;2023-09-19T09:14:00;8.63;;;1.98;;
9420;SDS011;4749;51.398;5.466;2023-09-19T09:16:29;13.98;;;2.35;;
9420;SDS011;4749;51.398;5.466;2023-09-19T09:18:57;11.95;;;2.42;;
9420;SDS011;4749;51.398;5.466;2023-09-19T09:21:25;11.20;;;2.05;;
9420;SDS011;4749;51.398;5.466;2023-09-19T09:23:52;6.50;;;2.42;;
9420;SDS011;4749;51.398;5.466;2023-09-19T09:26:40;8.65;;;2.45;;
9420;SDS011;4749;51.398;5.466;2023-09-19T09:29:13;12.27;;;2.88;;
9420;SDS011;4749;51.398;5.466;2023-09-19T09:31:46;10.98;;;2.10;;
9420;SDS011;4749;51.398;5.466;2023-09-19T09:34:15;10.07;;;2.78;;
9420;SDS011;4749;51.398;5.466;2023-09-19T09:36:43;8.38;;;2.45;;
9420;SDS011;4749;51.398;5.466;2023-09-19T09:39:27;8.00;;;2.08;;
9420;SDS011;4749;51.398;5.466;2023-09-19T09:41:59;10.68;;;2.67;;
9420;SDS011;4749;51.398;5.466;2023-09-19T09:44:26;6.82;;;2.10;;
9420;SDS011;4749;51.398;5.466;2023-09-19T09:46:58;8.00;;;1.90;;
9420;SDS011;4749;51.398;5.466;2023-09-19T09:49:49;9.98;;;2.38;;
9420;SDS011;4749;51.398;5.466;2023-09-19T09:52:21;9.05;;;2.20;;
9420;SDS011;4749;51.398;5.466;2023-09-19T09:55:00;6.47;;;2.03;;
9420;SDS011;4749;51.398;5.466;2023-09-19T09:57:38;12.45;;;2.88;;
9420;SDS011;4749;51.398;5.466;2023-09-19T10:00:08;11.75;;;2.45;;
9420;SDS011;4749;51.398;5.466;2023-09-19T10:02:40;12.52;;;2.80;;
9420;SDS011;4749;51.398;5.466;2023-09-19T10:05:20;8.07;;;2.28;;
9420;SDS011;4749;51.398;5.466;2023-09-19T10:07:49;9.48;;;1.95;;
9420;SDS011;4749;51.398;5.466;2023-09-19T10:10:35;6.30;;;1.73;;
9420;SDS011;4749;51.398;5.466;2023-09-19T10:13:09;7.70;;;2.08;;
9420;SDS011;4749;51.398;5.466;2023-09-19T10:15:47;8.00;;;1.77;;
9420;SDS011;4749;51.398;5.466;2023-09-19T10:18:25;10.52;;;2.20;;
9420;SDS011;4749;51.398;5.466;2023-09-19T10:20:56;7.05;;;1.88;;
9420;SDS011;4749;51.398;5.466;2023-09-19T10:23:24;11.93;;;2.47;;
9420;SDS011;4749;51.398;5.466;2023-09-19T10:25:58;9.57;;;2.13;;
9420;SDS011;4749;51.398;5.466;2023-09-19T10:28:29;9.18;;;1.88;;
9420;SDS011;4749;51.398;5.466;2023-09-19T10:30:58;10.77;;;2.15;;
9420;SDS011;4749;51.398;5.466;2023-09-19T10:33:28;9.00;;;2.08;;
9420;SDS011;4749;51.398;5.466;2023-09-19T10:36:04;6.88;;;1.83;;
9420;SDS011;4749;51.398;5.466;2023-09-19T10:38:32;10.18;;;2.42;;
9420;SDS011;4749;51.398;5.466;2023-09-19T10:41:02;9.35;;;2.00;;
9420;SDS011;4749;51.398;5.466;2023-09-19T10:43:32;10.68;;;2.03;;
9420;SDS011;4749;51.398;5.466;2023-09-19T10:46:02;9.50;;;2.33;;
9420;SDS011;4749;51.398;5.466;2023-09-19T10:48:37;7.25;;;2.05;;
9420;SDS011;4749;51.398;5.466;2023-09-19T10:51:11;9.35;;;1.83;;
9420;SDS011;4749;51.398;5.466;2023-09-19T10:54:30;7.68;;;1.80;;
9420;SDS011;4749;51.398;5.466;2023-09-19T10:56:44;8.45;;;2.22;;
9420;SDS011;4749;51.398;5.466;2023-09-19T10:59:18;7.72;;;2.10;;
9420;SDS011;4749;51.398;5.466;2023-09-19T11:01:49;11.93;;;2.60;;
9420;SDS011;4749;51.398;5.466;2023-09-19T11:04:33;7.00;;;1.90;;
9420;SDS011;4749;51.398;5.466;2023-09-19T11:07:06;8.30;;;2.10;;
9420;SDS011;4749;51.398;5.466;2023-09-19T11:09:42;8.93;;;2.00;;
9420;SDS011;4749;51.398;5.466;2023-09-19T11:15:00;9.27;;;1.60;;
9420;SDS011;4749;51.398;5.466;2023-09-19T11:17:35;9.20;;;2.00;;
9420;SDS011;4749;51.398;5.466;2023-09-19T11:28:44;5.78;;;1.45;;
9420;SDS011;4749;51.398;5.466;2023-09-19T11:30:48;4.57;;;2.00;;
9420;SDS011;4749;51.398;5.466;2023-09-19T11:36:01;7.20;;;1.70;;
9420;SDS011;4749;51.398;5.466;2023-09-19T11:46:31;8.38;;;1.67;;
9420;SDS011;4749;51.398;5.466;2023-09-19T11:49:07;6.75;;;1.48;;
9420;SDS011;4749;51.398;5.466;2023-09-19T11:51:43;6.20;;;1.38;;
9420;SDS011;4749;51.398;5.466;2023-09-19T11:54:12;9.93;;;1.67;;
9420;SDS011;4749;51.398;5.466;2023-09-19T11:56:51;6.68;;;1.45;;
9420;SDS011;4749;51.398;5.466;2023-09-19T11:59:20;6.28;;;1.42;;
9420;SDS011;4749;51.398;5.466;2023-09-19T12:01:57;3.67;;;1.58;;
9420;SDS011;4749;51.398;5.466;2023-09-19T12:04:33;5.05;;;1.00;;
9420;SDS011;4749;51.398;5.466;2023-09-19T12:07:06;3.47;;;1.48;;
9420;SDS011;4749;51.398;5.466;2023-09-19T12:09:43;6.18;;;1.10;;
9420;SDS011;4749;51.398;5.466;2023-09-19T12:12:21;6.53;;;1.30;;
9420;SDS011;4749;51.398;5.466;2023-09-19T12:14:57;5.47;;;1.45;;
9420;SDS011;4749;51.398;5.466;2023-09-19T12:17:36;3.75;;;1.13;;
9420;SDS011;4749;51.398;5.466;2023-09-19T12:20:09;5.15;;;1.23;;
9420;SDS011;4749;51.398;5.466;2023-09-19T12:22:41;3.70;;;1.20;;
9420;SDS011;4749;51.398;5.466;2023-09-19T12:25:10;14.98;;;1.25;;
9420;SDS011;4749;51.398;5.466;2023-09-19T12:27:45;4.18;;;0.88;;
9420;SDS011;4749;51.398;5.466;2023-09-19T12:30:16;3.10;;;0.98;;
9420;SDS011;4749;51.398;5.466;2023-09-19T12:32:53;7.38;;;1.10;;
9420;SDS011;4749;51.398;5.466;2023-09-19T12:35:32;5.80;;;1.00;;
9420;SDS011;4749;51.398;5.466;2023-09-19T12:38:05;4.18;;;0.90;;
9420;SDS011;4749;51.398;5.466;2023-09-19T12:40:34;2.65;;;0.90;;
9420;SDS011;4749;51.398;5.466;2023-09-19T12:43:04;2.78;;;0.88;;
9420;SDS011;4749;51.398;5.466;2023-09-19T12:45:33;5.57;;;1.00;;
9420;SDS011;4749;51.398;5.466;2023-09-19T12:48:18;3.55;;;0.93;;
9420;SDS011;4749;51.398;5.466;2023-09-19T12:53:37;4.40;;;0.90;;
9420;SDS011;4749;51.398;5.466;2023-09-19T12:56:16;2.47;;;0.93;;
9420;SDS011;4749;51.398;5.466;2023-09-19T12:58:48;3.60;;;0.82;;
9420;SDS011;4749;51.398;5.466;2023-09-19T13:01:25;2.33;;;1.05;;
9420;SDS011;4749;51.398;5.466;2023-09-19T13:06:55;2.85;;;1.08;;
9420;SDS011;4749;51.398;5.466;2023-09-19T13:09:28;5.70;;;1.15;;
9420;SDS011;4749;51.398;5.466;2023-09-19T13:12:01;2.40;;;1.20;;
9420;SDS011;4749;51.398;5.466;2023-09-19T13:14:33;4.53;;;0.93;;
9420;SDS011;4749;51.398;5.466;2023-09-19T13:17:07;2.85;;;0.85;;
9420;SDS011;4749;51.398;5.466;2023-09-19T13:19:47;6.63;;;1.15;;
9420;SDS011;4749;51.398;5.466;2023-09-19T13:25:21;4.00;;;0.95;;
9420;SDS011;4749;51.398;5.466;2023-09-19T13:27:49;3.92;;;1.20;;
9420;SDS011;4749;51.398;5.466;2023-09-19T13:30:21;3.45;;;0.88;;
9420;SDS011;4749;51.398;5.466;2023-09-19T13:32:52;3.33;;;0.90;;
9420;SDS011;4749;51.398;5.466;2023-09-19T13:35:33;2.38;;;0.93;;
9420;SDS011;4749;51.398;5.466;2023-09-19T13:38:00;4.93;;;0.90;;
9420;SDS011;4749;51.398;5.466;2023-09-19T13:40:27;11.45;;;1.00;;
9420;SDS011;4749;51.398;5.466;2023-09-19T13:43:01;4.93;;;1.00;;
9420;SDS011;4749;51.398;5.466;2023-09-19T13:45:29;3.22;;;0.90;;
9420;SDS011;4749;51.398;5.466;2023-09-19T13:47:57;4.43;;;0.90;;
9420;SDS011;4749;51.398;5.466;2023-09-19T13:50:27;2.70;;;0.93;;
9420;SDS011;4749;51.398;5.466;2023-09-19T13:52:56;6.53;;;1.02;;
9420;SDS011;4749;51.398;5.466;2023-09-19T13:55:24;1.92;;;0.82;;
9420;SDS011;4749;51.398;5.466;2023-09-19T13:57:51;2.63;;;0.90;;
9420;SDS011;4749;51.398;5.466;2023-09-19T14:00:22;4.10;;;0.90;;
9420;SDS011;4749;51.398;5.466;2023-09-19T14:02:50;5.28;;;0.90;;
9420;SDS011;4749;51.398;5.466;2023-09-19T14:05:18;3.10;;;0.80;;
9420;SDS011;4749;51.398;5.466;2023-09-19T14:07:47;2.78;;;0.90;;
9420;SDS011;4749;51.398;5.466;2023-09-19T14:10:15;3.67;;;0.80;;
9420;SDS011;4749;51.398;5.466;2023-09-19T14:12:44;4.22;;;0.95;;
9420;SDS011;4749;51.398;5.466;2023-09-19T14:15:12;6.55;;;1.05;;
9420;SDS011;4749;51.398;5.466;2023-09-19T14:17:40;2.75;;;1.13;;
9420;SDS011;4749;51.398;5.466;2023-09-19T14:20:13;3.28;;;0.80;;
9420;SDS011;4749;51.398;5.466;2023-09-19T14:22:42;2.75;;;0.90;;
9420;SDS011;4749;51.398;5.466;2023-09-19T14:25:09;3.75;;;1.08;;
9420;SDS011;4749;51.398;5.466;2023-09-19T14:27:36;2.30;;;0.85;;
9420;SDS011;4749;51.398;5.466;2023-09-19T14:30:04;3.15;;;1.00;;
9420;SDS011;4749;51.398;5.466;2023-09-19T14:32:33;2.63;;;0.95;;
9420;SDS011;4749;51.398;5.466;2023-09-19T14:35:00;4.60;;;1.17;;
9420;SDS011;4749;51.398;5.466;2023-09-19T14:37:27;2.95;;;1.10;;
9420;SDS011;4749;51.398;5.466;2023-09-19T14:39:54;3.72;;;0.95;;
9420;SDS011;4749;51.398;5.466;2023-09-19T14:42:22;4.05;;;0.95;;
9420;SDS011;4749;51.398;5.466;2023-09-19T14:44:49;4.95;;;1.10;;
9420;SDS011;4749;51.398;5.466;2023-09-19T14:47:16;3.13;;;1.10;;
9420;SDS011;4749;51.398;5.466;2023-09-19T14:49:43;4.65;;;1.00;;
9420;SDS011;4749;51.398;5.466;2023-09-19T14:52:11;4.45;;;1.10;;
9420;SDS011;4749;51.398;5.466;2023-09-19T14:54:42;4.65;;;0.90;;
9420;SDS011;4749;51.398;5.466;2023-09-19T14:57:09;1.95;;;0.80;;
9420;SDS011;4749;51.398;5.466;2023-09-19T14:59:37;4.93;;;1.30;;
9420;SDS011;4749;51.398;5.466;2023-09-19T15:02:04;3.67;;;1.00;;
9420;SDS011;4749;51.398;5.466;2023-09-19T15:04:32;2.42;;;1.10;;
9420;SDS011;4749;51.398;5.466;2023-09-19T15:07:03;2.97;;;0.93;;
9420;SDS011;4749;51.398;5.466;2023-09-19T15:09:31;3.75;;;1.17;;
9420;SDS011;4749;51.398;5.466;2023-09-19T15:12:00;3.63;;;1.10;;
9420;SDS011;4749;51.398;5.466;2023-09-19T15:14:27;6.03;;;1.02;;
9420;SDS011;4749;51.398;5.466;2023-09-19T15:16:56;2.90;;;0.82;;
9420;SDS011;4749;51.398;5.466;2023-09-19T15:19:23;6.70;;;1.35;;
9420;SDS011;4749;51.398;5.466;2023-09-19T15:21:51;3.13;;;1.05;;
9420;SDS011;4749;51.398;5.466;2023-09-19T15:24:21;4.53;;;1.30;;
9420;SDS011;4749;51.398;5.466;2023-09-19T15:26:48;2.50;;;1.10;;
9420;SDS011;4749;51.398;5.466;2023-09-19T15:29:17;3.95;;;0.93;;
9420;SDS011;4749;51.398;5.466;2023-09-19T15:31:45;3.60;;;0.80;;
9420;SDS011;4749;51.398;5.466;2023-09-19T15:34:12;6.50;;;1.45;;
9420;SDS011;4749;51.398;5.466;2023-09-19T15:36:42;4.60;;;1.20;;
9420;SDS011;4749;51.398;5.466;2023-09-19T15:39:10;3.10;;;1.02;;
9420;SDS011;4749;51.398;5.466;2023-09-19T15:41:38;4.85;;;1.20;;
9420;SDS011;4749;51.398;5.466;2023-09-19T15:44:14;4.22;;;1.27;;
9420;SDS011;4749;51.398;5.466;2023-09-19T15:46:44;4.30;;;1.20;;
9420;SDS011;4749;51.398;5.466;2023-09-19T15:49:12;5.15;;;1.08;;
9420;SDS011;4749;51.398;5.466;2023-09-19T15:51:40;3.00;;;1.23;;
9420;SDS011;4749;51.398;5.466;2023-09-19T15:54:08;2.00;;;1.00;;
9420;SDS011;4749;51.398;5.466;2023-09-19T15:56:40;2.53;;;1.02;;
9420;SDS011;4749;51.398;5.466;2023-09-19T15:59:11;4.45;;;1.23;;
9420;SDS011;4749;51.398;5.466;2023-09-19T16:01:40;4.07;;;1.25;;
9420;SDS011;4749;51.398;5.466;2023-09-19T16:04:10;3.08;;;1.38;;
9420;SDS011;4749;51.398;5.466;2023-09-19T16:06:39;3.72;;;1.08;;
9420;SDS011;4749;51.398;5.466;2023-09-19T16:09:08;4.97;;;1.00;;
9420;SDS011;4749;51.398;5.466;2023-09-19T16:11:38;5.45;;;1.38;;
9420;SDS011;4749;51.398;5.466;2023-09-19T16:14:12;4.43;;;1.00;;
9420;SDS011;4749;51.398;5.466;2023-09-19T16:16:43;3.50;;;1.20;;
9420;SDS011;4749;51.398;5.466;2023-09-19T16:19:11;5.95;;;1.30;;
9420;SDS011;4749;51.398;5.466;2023-09-19T16:21:38;4.43;;;1.17;;
9420;SDS011;4749;51.398;5.466;2023-09-19T16:24:07;5.82;;;1.40;;
9420;SDS011;4749;51.398;5.466;2023-09-19T16:26:37;6.22;;;1.10;;